Time;durP1;ratioP1;P1;durP2;ratioP2;P2;SDS_P1;SDS_P2;PMS_P1;PMS_P2;Temp;Humidity;BMP_temperature;BMP_pressure;BME280_temperature;BME280_humidity;BME280_pressure;Samples;Min_cycle;Max_cycle;Signal;HPM_P1;HPM_P2
2021/10/27 05:22:31;;;;;;;86.35;49.17;;;;;;;;;;5240427;23;19950;-61
2021/10/27 05:24:57;;;;;;;82.80;49.13;;;;;;;;;;4895193;29;20036;-61
2021/10/27 05:27:23;;;;;;;87.20;49.85;;;;;;;;;;4907047;29;20079;-64
2021/10/27 05:29:49;;;;;;;83.25;49.15;;;;;;;;;;4905050;29;20054;-67
2021/10/27 05:32:15;;;;;;;85.22;50.00;;;;;;;;;;4905618;29;20461;-61
2021/10/27 05:34:42;;;;;;;87.40;50.10;;;;;;;;;;4905885;29;20032;-63
2021/10/27 05:37:09;;;;;;;91.25;48.80;;;;;;;;;;4915343;29;20040;-61
2021/10/27 05:39:35;;;;;;;85.78;50.47;;;;;;;;;;4906322;29;20032;-60
2021/10/27 05:42:03;;;;;;;89.28;50.60;;;;;;;;;;4909383;29;20115;-65
2021/10/27 05:44:29;;;;;;;90.38;50.95;;;;;;;;;;4906532;29;20028;-65
2021/10/27 05:46:56;;;;;;;89.97;52.38;;;;;;;;;;4901849;29;20021;-64
2021/10/27 05:49:24;;;;;;;99.80;52.22;;;;;;;;;;4898055;29;20028;-65
2021/10/27 05:51:55;;;;;;;94.47;52.25;;;;;;;;;;4896124;29;20481;-63
2021/10/27 05:57:07;;;;;;;96.60;52.65;;;;;;;;;;4896020;29;20048;-63
2021/10/27 05:59:33;;;;;;;92.35;52.58;;;;;;;;;;4896279;29;20025;-60
2021/10/27 06:01:59;;;;;;;108.53;58.25;;;;;;;;;;4896106;29;20396;-60
2021/10/27 06:04:26;;;;;;;102.18;55.13;;;;;;;;;;4896221;29;20020;-62
2021/10/27 06:06:52;;;;;;;105.00;55.20;;;;;;;;;;4896211;29;20609;-61
2021/10/27 06:09:18;;;;;;;101.70;55.63;;;;;;;;;;4896172;29;20037;-63
2021/10/27 06:11:44;;;;;;;95.03;54.70;;;;;;;;;;4896236;29;20028;-64
2021/10/27 06:14:11;;;;;;;109.68;60.78;;;;;;;;;;4896093;29;20027;-64
2021/10/27 06:16:38;;;;;;;101.22;57.65;;;;;;;;;;4895825;29;20488;-62
2021/10/27 06:19:06;;;;;;;107.35;63.42;;;;;;;;;;4895722;29;20080;-63
2021/10/27 06:21:33;;;;;;;106.22;61.10;;;;;;;;;;4895837;29;20075;-64
2021/10/27 06:23:59;;;;;;;96.50;55.05;;;;;;;;;;4895728;29;20028;-64
2021/10/27 06:26:25;;;;;;;95.05;55.15;;;;;;;;;;4878978;29;20043;-63
2021/10/27 06:29:06;;;;;;;93.68;55.10;;;;;;;;;;4895764;29;20099;-63
2021/10/27 06:31:36;;;;;;;92.85;54.72;;;;;;;;;;4895857;29;20028;-61
2021/10/27 06:45:55;;;;;;;90.70;52.35;;;;;;;;;;4838002;29;20038;-60
2021/10/27 06:47:45;;;;;;;93.38;52.38;;;;;;;;;;4838449;29;20087;-62
2021/10/27 06:50:12;;;;;;;82.80;47.40;;;;;;;;;;4837778;29;20038;-61
2021/10/27 06:52:39;;;;;;;78.53;46.00;;;;;;;;;;4837677;29;20042;-61
2021/10/27 06:55:06;;;;;;;78.43;46.97;;;;;;;;;;4837664;29;20030;-63
2021/10/27 06:57:33;;;;;;;89.47;48.58;;;;;;;;;;4837527;29;20506;-62
2021/10/27 07:00:10;;;;;;;85.80;49.90;;;;;;;;;;4851491;29;20025;-62
2021/10/27 07:05:53;;;;;;;78.40;47.53;;;;;;;;;;4817657;29;20097;-62
2021/10/27 07:16:32;;;;;;;81.47;47.00;;;;;;;;;;4830506;29;20045;-64
2021/10/27 07:18:58;;;;;;;77.47;45.95;;;;;;;;;;4850130;29;20037;-63
2021/10/27 07:21:24;;;;;;;79.53;46.05;;;;;;;;;;4845641;29;20128;-64
2021/10/27 07:23:50;;;;;;;72.60;44.72;;;;;;;;;;4836092;29;20038;-62
2021/10/27 07:26:18;;;;;;;76.53;45.55;;;;;;;;;;4835962;29;20110;-62
2021/10/27 07:28:47;;;;;;;75.35;44.92;;;;;;;;;;4836421;29;20130;-62
2021/10/27 07:31:15;;;;;;;76.55;47.05;;;;;;;;;;4841407;29;20557;-61
2021/10/27 07:33:42;;;;;;;75.45;46.47;;;;;;;;;;4837221;29;20041;-65
2021/10/27 07:41:29;;;;;;;78.30;45.65;;;;;;;;;;4914042;29;20749;-63
2021/10/27 07:43:56;;;;;;;75.53;45.92;;;;;;;;;;4908975;29;20819;-63
2021/10/27 07:46:22;;;;;;;73.53;45.10;;;;;;;;;;4919476;29;20028;-61
2021/10/27 07:48:48;;;;;;;72.60;45.03;;;;;;;;;;4920136;29;20031;-62
2021/10/27 07:51:14;;;;;;;73.00;43.38;;;;;;;;;;4915209;29;20032;-61
2021/10/27 07:53:40;;;;;;;72.72;43.75;;;;;;;;;;4932798;29;20024;-67
2021/10/27 07:56:06;;;;;;;69.32;42.83;;;;;;;;;;4936152;29;20054;-62
2021/10/27 07:58:33;;;;;;;65.85;41.58;;;;;;;;;;4919883;29;20031;-62
2021/10/27 08:01:00;;;;;;;71.00;40.90;;;;;;;;;;4911488;29;20032;-68
2021/10/27 08:03:26;;;;;;;71.57;42.80;;;;;;;;;;4911803;29;20063;-60
2021/10/27 08:05:53;;;;;;;67.97;41.50;;;;;;;;;;4898301;29;20028;-65
2021/10/27 08:08:21;;;;;;;60.20;39.45;;;;;;;;;;4898372;29;20017;-66
2021/10/27 08:10:48;;;;;;;62.22;39.40;;;;;;;;;;4898130;29;20048;-61
2021/10/27 08:13:14;;;;;;;62.00;38.90;;;;;;;;;;4922582;29;20107;-63
2021/10/27 08:15:40;;;;;;;63.40;39.85;;;;;;;;;;4933474;29;20035;-61
2021/10/27 08:18:11;;;;;;;68.15;41.75;;;;;;;;;;4935241;29;20031;-64
2021/10/27 08:20:37;;;;;;;65.35;40.20;;;;;;;;;;4935756;29;20043;-66
2021/10/27 08:23:07;;;;;;;70.50;43.72;;;;;;;;;;4927757;29;20070;-63
2021/10/27 08:28:05;;;;;;;67.18;40.17;;;;;;;;;;4916333;29;20075;-61
2021/10/27 08:30:39;;;;;;;65.35;40.22;;;;;;;;;;4916504;29;20029;-66
2021/10/27 08:33:06;;;;;;;69.47;42.35;;;;;;;;;;4916388;29;20024;-66
2021/10/27 08:35:34;;;;;;;65.95;39.40;;;;;;;;;;4916434;29;20111;-62
2021/10/27 08:38:01;;;;;;;65.18;39.50;;;;;;;;;;4916206;29;20115;-65
2021/10/27 08:40:27;;;;;;;64.03;38.05;;;;;;;;;;4916391;29;20047;-64
2021/10/27 08:42:55;;;;;;;66.90;39.17;;;;;;;;;;4915943;29;20035;-66
2021/10/27 08:45:21;;;;;;;67.47;39.38;;;;;;;;;;4915983;29;20400;-65
2021/10/27 08:47:50;;;;;;;60.92;39.13;;;;;;;;;;4916081;29;20055;-66
2021/10/27 08:50:18;;;;;;;78.53;38.97;;;;;;;;;;4916247;29;20480;-63
2021/10/27 08:52:44;;;;;;;67.75;38.75;;;;;;;;;;4916279;29;20040;-66
2021/10/27 08:55:13;;;;;;;63.25;38.30;;;;;;;;;;4910349;29;20039;-61
2021/10/27 08:57:40;;;;;;;63.28;38.08;;;;;;;;;;4901216;29;20111;-65
2021/10/27 09:00:27;;;;;;;61.55;37.05;;;;;;;;;;4897285;29;20024;-66
2021/10/27 09:03:02;;;;;;;51.97;32.88;;;;;;;;;;4915880;29;20039;-69
2021/10/27 09:40:51;;;;;;;49.40;29.50;;;;;;;;;;4932220;29;20043;-61
2021/10/27 10:05:04;;;;;;;55.15;33.65;;;;;;;;;;4930903;29;20086;-62
2021/10/27 10:07:31;;;;;;;58.90;35.17;;;;;;;;;;4930429;29;20020;-66
2021/10/27 10:09:57;;;;;;;59.22;33.92;;;;;;;;;;4932254;29;20039;-63
2021/10/27 10:12:23;;;;;;;53.28;33.13;;;;;;;;;;4932687;29;20015;-68
2021/10/27 10:14:50;;;;;;;52.83;31.73;;;;;;;;;;4932227;29;20187;-67
2021/10/27 10:17:17;;;;;;;53.47;34.42;;;;;;;;;;4931836;29;20520;-62
2021/10/27 10:19:43;;;;;;;55.55;34.40;;;;;;;;;;4933607;29;20113;-65
2021/10/27 10:22:28;;;;;;;53.65;34.17;;;;;;;;;;4931282;29;20096;-69
2021/10/27 10:24:55;;;;;;;50.10;33.40;;;;;;;;;;4916317;29;20469;-65
2021/10/27 10:27:40;;;;;;;51.85;31.75;;;;;;;;;;4900962;29;20031;-68
2021/10/27 10:30:28;;;;;;;52.85;33.20;;;;;;;;;;4895975;29;20064;-68
2021/10/27 10:33:01;;;;;;;50.85;32.35;;;;;;;;;;4895208;29;20029;-61
2021/10/27 10:35:40;;;;;;;55.28;33.22;;;;;;;;;;4897364;29;20845;-71
2021/10/27 10:38:25;;;;;;;55.30;34.53;;;;;;;;;;4914586;29;20089;-62
2021/10/27 11:27:36;;;;;;;46.15;28.00;;;;;;;;;;4858394;29;20041;-63
2021/10/27 11:40:45;;;;;;;;;;;;;;;;;;4917078;29;20079;-61
2021/10/27 11:45:41;;;;;;;42.97;24.40;;;;;;;;;;4917255;29;20118;-62
2021/10/27 11:48:21;;;;;;;36.67;22.75;;;;;;;;;;4916527;29;20076;-59
2021/10/27 11:50:48;;;;;;;41.28;22.75;;;;;;;;;;4916897;29;20032;-61
2021/10/27 11:53:24;;;;;;;34.22;22.17;;;;;;;;;;4910239;29;20028;-64
2021/10/27 11:55:51;;;;;;;35.97;22.42;;;;;;;;;;4903761;29;20351;-63
2021/10/27 11:58:18;;;;;;;40.60;22.35;;;;;;;;;;4897517;29;20025;-62
2021/10/27 12:00:48;;;;;;;45.42;28.48;;;;;;;;;;4897927;29;20029;-61
2021/10/27 12:03:17;;;;;;;54.55;30.08;;;;;;;;;;4897063;29;20552;-61
2021/10/27 12:13:40;;;;;;;37.85;22.85;;;;;;;;;;4916922;29;20028;-62
2021/10/27 12:19:06;;;;;;;39.88;22.95;;;;;;;;;;4821183;29;20270;-66
2021/10/27 12:21:33;;;;;;;37.67;22.63;;;;;;;;;;4820578;29;20141;-61
2021/10/27 12:24:02;;;;;;;31.60;20.13;;;;;;;;;;4820225;29;20046;-63
2021/10/27 12:26:28;;;;;;;39.92;22.85;;;;;;;;;;4820786;29;20514;-63
2021/10/27 12:29:02;;;;;;;37.15;21.98;;;;;;;;;;4805135;29;20410;-65
2021/10/27 12:31:30;;;;;;;38.67;23.45;;;;;;;;;;4820376;29;20795;-60
2021/10/27 12:33:57;;;;;;;38.83;21.60;;;;;;;;;;4820817;29;20034;-63
2021/10/27 12:36:42;;;;;;;41.95;22.92;;;;;;;;;;4820155;29;20046;-66
2021/10/27 12:42:09;;;;;;;33.58;21.27;;;;;;;;;;4820958;29;20061;-70
2021/10/27 12:44:44;;;;;;;37.55;20.60;;;;;;;;;;4820931;29;20038;-62
2021/10/27 12:47:16;;;;;;;34.25;21.33;;;;;;;;;;4820088;29;20065;-62
2021/10/27 12:49:44;;;;;;;39.07;23.40;;;;;;;;;;4808806;29;20075;-64
2021/10/27 12:52:43;;;;;;;37.17;20.35;;;;;;;;;;4834713;29;20030;-64
2021/10/27 12:55:13;;;;;;;36.03;20.40;;;;;;;;;;4784838;29;20052;-63
2021/10/27 12:57:42;;;;;;;40.28;20.55;;;;;;;;;;4838627;29;20052;-66
2021/10/27 13:00:28;;;;;;;36.10;21.70;;;;;;;;;;4838948;29;20038;-62
2021/10/27 13:03:21;;;;;;;32.35;21.20;;;;;;;;;;4838310;29;20166;-62
2021/10/27 13:06:02;;;;;;;36.97;21.13;;;;;;;;;;4838389;29;20038;-63
2021/10/27 13:11:43;;;;;;;41.90;20.95;;;;;;;;;;4837258;29;20553;-66
2021/10/27 13:32:40;;;;;;;38.28;19.63;;;;;;;;;;4834991;29;20061;-68
2021/10/27 13:35:08;;;;;;;36.60;20.58;;;;;;;;;;4838336;29;20038;-67
2021/10/27 13:37:35;;;;;;;40.58;22.52;;;;;;;;;;4837294;29;20050;-63
2021/10/27 13:40:01;;;;;;;43.35;22.33;;;;;;;;;;4837488;29;20475;-64
2021/10/27 13:42:34;;;;;;;46.05;24.17;;;;;;;;;;4838080;29;20042;-64
2021/10/27 13:45:12;;;;;;;34.70;20.77;;;;;;;;;;4823049;29;20072;-64
2021/10/27 14:06:39;;;;;;;35.60;20.92;;;;;;;;;;4838094;29;20094;-62
2021/10/27 14:10:01;;;;;;;38.60;22.33;;;;;;;;;;4858390;29;20052;-64
2021/10/27 14:12:04;;;;;;;34.40;20.67;;;;;;;;;;4874101;29;20040;-67
2021/10/27 14:14:42;;;;;;;33.92;20.33;;;;;;;;;;4877450;29;20071;-64
2021/10/27 14:19:47;;;;;;;34.75;19.92;;;;;;;;;;4877287;29;20081;-62
2021/10/27 15:51:34;;;;;;;32.35;20.77;;;;;;;;;;4821297;29;20049;-62
2021/10/27 15:54:00;;;;;;;37.97;22.25;;;;;;;;;;4821458;29;20041;-63
2021/10/27 15:56:27;;;;;;;33.88;21.95;;;;;;;;;;4820378;29;20125;-66
2021/10/27 15:58:53;;;;;;;38.83;22.25;;;;;;;;;;4821192;29;20049;-64
2021/10/27 16:01:19;;;;;;;37.78;22.17;;;;;;;;;;4821511;29;20037;-64
2021/10/27 16:03:45;;;;;;;41.20;23.05;;;;;;;;;;4821411;29;20109;-62
2021/10/27 16:06:15;;;;;;;44.60;25.25;;;;;;;;;;4820971;29;20038;-62
2021/10/27 16:08:45;;;;;;;42.75;24.88;;;;;;;;;;4821208;29;20158;-66
2021/10/27 16:11:11;;;;;;;54.63;29.17;;;;;;;;;;4821560;29;20038;-63
2021/10/27 16:13:37;;;;;;;61.88;31.85;;;;;;;;;;4820841;29;20232;-64
2021/10/27 16:16:03;;;;;;;79.63;36.65;;;;;;;;;;4821396;29;20140;-67
2021/10/27 16:18:31;;;;;;;61.08;31.75;;;;;;;;;;4820978;29;20419;-62
2021/10/27 16:20:58;;;;;;;72.00;35.65;;;;;;;;;;4820630;29;20042;-64
2021/10/27 16:23:25;;;;;;;69.10;35.00;;;;;;;;;;4862268;29;20055;-67
2021/10/27 16:25:51;;;;;;;68.72;33.45;;;;;;;;;;4896956;29;20033;-67
2021/10/27 16:28:18;;;;;;;67.07;33.78;;;;;;;;;;4897290;29;20400;-61
2021/10/27 16:30:44;;;;;;;63.55;33.67;;;;;;;;;;4897594;29;20773;-65
2021/10/27 16:33:10;;;;;;;67.82;33.95;;;;;;;;;;4897378;29;20164;-62
2021/10/27 16:35:36;;;;;;;67.28;37.22;;;;;;;;;;4896967;29;20035;-66
2021/10/27 16:38:04;;;;;;;82.10;40.25;;;;;;;;;;4897413;29;20400;-65
2021/10/27 16:40:30;;;;;;;74.50;40.70;;;;;;;;;;4897149;29;20017;-63
2021/10/27 16:42:57;;;;;;;74.22;40.55;;;;;;;;;;4896843;29;20056;-64
2021/10/27 16:45:23;;;;;;;74.70;39.97;;;;;;;;;;4897143;29;20024;-65
2021/10/27 16:47:49;;;;;;;70.03;39.95;;;;;;;;;;4897175;29;20031;-62
2021/10/27 16:50:15;;;;;;;74.55;41.22;;;;;;;;;;4896754;29;20033;-61
2021/10/27 16:52:44;;;;;;;69.78;37.65;;;;;;;;;;4893937;29;20021;-66
2021/10/27 16:55:17;;;;;;;74.40;41.55;;;;;;;;;;4896407;29;20484;-62
2021/10/27 16:57:44;;;;;;;74.13;40.97;;;;;;;;;;4896696;29;20048;-65
2021/10/27 17:00:11;;;;;;;72.93;40.67;;;;;;;;;;4897108;29;20025;-67
2021/10/27 17:02:37;;;;;;;79.10;41.60;;;;;;;;;;4888084;29;20064;-63
2021/10/27 17:05:03;;;;;;;68.78;39.22;;;;;;;;;;4887810;29;20041;-65
2021/10/27 17:07:31;;;;;;;75.32;39.35;;;;;;;;;;4886995;29;20037;-62
2021/10/27 17:09:57;;;;;;;81.45;41.72;;;;;;;;;;4891551;29;20761;-66
2021/10/27 17:12:23;;;;;;;80.05;43.20;;;;;;;;;;4896843;29;20028;-61
2021/10/27 17:14:49;;;;;;;79.97;44.22;;;;;;;;;;4896085;29;20057;-65
2021/10/27 17:17:15;;;;;;;78.50;44.58;;;;;;;;;;4896594;29;20413;-67
2021/10/27 17:19:41;;;;;;;76.43;43.55;;;;;;;;;;4897233;29;20025;-67
2021/10/27 17:22:10;;;;;;;75.63;40.75;;;;;;;;;;4895732;29;20135;-62
2021/10/27 17:24:36;;;;;;;81.10;42.90;;;;;;;;;;4879179;29;20036;-67
2021/10/27 17:27:03;;;;;;;88.95;44.08;;;;;;;;;;4896277;29;20037;-64
2021/10/27 17:29:31;;;;;;;86.13;45.28;;;;;;;;;;4895879;29;20029;-65
2021/10/27 17:31:57;;;;;;;85.72;44.70;;;;;;;;;;4896270;29;20037;-65
2021/10/27 17:34:23;;;;;;;87.50;45.45;;;;;;;;;;4896188;29;20021;-64
2021/10/27 17:36:49;;;;;;;83.50;46.63;;;;;;;;;;4892451;29;20029;-63
2021/10/27 17:39:16;;;;;;;85.50;46.13;;;;;;;;;;4896094;29;20021;-62
2021/10/27 17:41:46;;;;;;;83.38;46.15;;;;;;;;;;4889612;29;20028;-61
2021/10/27 17:44:13;;;;;;;85.60;46.63;;;;;;;;;;4887801;29;20037;-67
2021/10/27 17:46:45;;;;;;;89.45;48.50;;;;;;;;;;4885467;29;20036;-69
2021/10/27 17:51:50;;;;;;;96.65;50.30;;;;;;;;;;4879013;29;19918;-60
2021/10/27 17:59:46;;;;;;;100.80;54.38;;;;;;;;;;4890201;29;20077;-62
2021/10/27 18:02:14;;;;;;;100.30;52.63;;;;;;;;;;4895838;29;20120;-61
2021/10/27 18:04:40;;;;;;;103.15;54.97;;;;;;;;;;4895442;29;20448;-61
2021/10/27 18:07:06;;;;;;;109.03;55.88;;;;;;;;;;4896014;29;20058;-61
2021/10/27 18:09:32;;;;;;;105.93;56.00;;;;;;;;;;4879108;29;20031;-60
2021/10/27 18:11:59;;;;;;;106.13;54.15;;;;;;;;;;4892233;29;20500;-61
2021/10/27 18:14:25;;;;;;;96.63;54.88;;;;;;;;;;4883983;29;20037;-60
2021/10/27 18:16:58;;;;;;;111.43;54.97;;;;;;;;;;4860368;29;20045;-60
2021/10/27 18:19:34;;;;;;;105.82;55.72;;;;;;;;;;4878493;29;20105;-61
2021/10/27 18:37:54;;;;;;;132.10;65.03;;;;;;;;;;4903035;29;20059;-65
2021/10/27 18:42:52;;;;;;;122.60;64.78;;;;;;;;;;4897047;29;20052;-64
2021/10/27 18:45:19;;;;;;;126.90;67.15;;;;;;;;;;4919678;29;20098;-66
2021/10/27 18:47:45;;;;;;;119.05;66.40;;;;;;;;;;4931456;29;20420;-61
2021/10/27 18:50:16;;;;;;;122.22;68.57;;;;;;;;;;4921047;29;20071;-64
2021/10/27 18:52:51;;;;;;;120.20;64.32;;;;;;;;;;4919286;29;20020;-62
2021/10/27 19:11:37;;;;;;;107.97;57.60;;;;;;;;;;4831559;29;20042;-65
2021/10/27 19:14:26;;;;;;;113.13;61.53;;;;;;;;;;4808233;29;20100;-66
2021/10/27 19:16:52;;;;;;;122.10;63.33;;;;;;;;;;4818042;29;20046;-62
2021/10/27 19:19:19;;;;;;;117.85;61.38;;;;;;;;;;4833225;29;20095;-64
2021/10/27 19:21:45;;;;;;;117.25;61.00;;;;;;;;;;4835475;29;20045;-65
2021/10/27 19:24:19;;;;;;;119.93;64.35;;;;;;;;;;4835285;29;20921;-63
2021/10/27 19:26:56;;;;;;;117.32;63.53;;;;;;;;;;4834778;29;20030;-66
2021/10/27 19:29:30;;;;;;;119.18;62.53;;;;;;;;;;4833973;29;20046;-64
2021/10/27 20:15:43;;;;;;;116.65;68.47;;;;;;;;;;4897677;29;20074;-63
2021/10/27 20:55:13;;;;;;;99.50;58.20;;;;;;;;;;4804581;29;20076;-63
2021/10/27 20:57:52;;;;;;;112.07;60.47;;;;;;;;;;4802316;29;20043;-64
2021/10/27 21:13:43;;;;;;;96.95;57.97;;;;;;;;;;4878254;29;20052;-62
2021/10/27 21:16:10;;;;;;;99.68;57.17;;;;;;;;;;4877651;29;20033;-63
2021/10/27 21:18:36;;;;;;;97.80;57.53;;;;;;;;;;4877649;29;20036;-64
2021/10/27 21:21:03;;;;;;;100.38;55.88;;;;;;;;;;4884433;29;20028;-62
2021/10/27 21:23:32;;;;;;;102.93;58.92;;;;;;;;;;4886763;29;20093;-63
2021/10/27 21:26:01;;;;;;;99.20;56.60;;;;;;;;;;4885830;29;20048;-66
